Time;durP1;ratioP1;P1;durP2;ratioP2;P2;SDS_P1;SDS_P2;PMS_P1;PMS_P2;Temp;Humidity;BMP_temperature;BMP_pressure;BME280_temperature;BME280_humidity;BME280_pressure;Samples;Min_cycle;Max_cycle;Signal;HPM_P1;HPM_P2
2021/04/13 00:01:30;;;;;;;12.10;7.30;;;;;;;;;;5082792;28;31977;-72
2021/04/13 00:04:03;;;;;;;10.63;6.72;;;;;;;;;;5082487;28;32103;-75
2021/04/13 00:06:32;;;;;;;16.58;8.30;;;;;;;;;;5082420;28;31964;-69
2021/04/13 00:09:00;;;;;;;16.52;7.43;;;;;;;;;;5082436;28;32298;-75
2021/04/13 00:11:26;;;;;;;13.93;7.85;;;;;;;;;;5082144;28;31899;-76
2021/04/13 00:13:55;;;;;;;11.88;7.38;;;;;;;;;;5082606;28;31812;-76
2021/04/13 00:16:23;;;;;;;13.82;7.13;;;;;;;;;;5082519;28;32511;-75
2021/04/13 00:18:49;;;;;;;15.05;7.93;;;;;;;;;;5082144;28;32421;-76
2021/04/13 00:21:15;;;;;;;10.35;6.85;;;;;;;;;;5082307;28;31752;-75
2021/04/13 00:23:41;;;;;;;14.02;7.88;;;;;;;;;;5082453;28;31991;-75
2021/04/13 00:26:08;;;;;;;13.80;7.65;;;;;;;;;;5081917;28;32687;-76
2021/04/13 00:28:54;;;;;;;12.15;7.90;;;;;;;;;;5079492;28;32236;-77
2021/04/13 00:31:38;;;;;;;13.60;7.60;;;;;;;;;;5082032;28;31796;-76
2021/04/13 00:34:07;;;;;;;11.25;7.43;;;;;;;;;;5082147;28;32240;-76
2021/04/13 00:36:32;;;;;;;13.30;8.32;;;;;;;;;;5081749;28;33298;-76
2021/04/13 00:38:58;;;;;;;10.80;6.90;;;;;;;;;;5082287;28;32218;-76
2021/04/13 00:41:27;;;;;;;12.88;7.88;;;;;;;;;;5082372;28;31985;-76
2021/04/13 00:44:02;;;;;;;14.15;7.55;;;;;;;;;;5086286;28;32039;-77
2021/04/13 00:46:36;;;;;;;11.75;8.05;;;;;;;;;;5090855;28;32960;-77
2021/04/13 00:49:02;;;;;;;11.90;7.53;;;;;;;;;;5088235;28;32016;-76
2021/04/13 00:51:30;;;;;;;11.73;8.15;;;;;;;;;;5081573;28;31929;-78
2021/04/13 00:54:01;;;;;;;10.68;7.45;;;;;;;;;;5082742;28;32196;-77
2021/04/13 00:56:27;;;;;;;12.57;7.30;;;;;;;;;;5082526;28;33405;-75
2021/04/13 00:58:58;;;;;;;10.75;6.88;;;;;;;;;;5082046;28;33134;-75
2021/04/13 01:01:26;;;;;;;12.85;7.88;;;;;;;;;;5082267;28;31957;-74
2021/04/13 01:03:54;;;;;;;10.25;6.55;;;;;;;;;;5081911;28;32065;-75
2021/04/13 01:06:25;;;;;;;10.43;6.60;;;;;;;;;;5081659;28;33453;-74
2021/04/13 01:09:01;;;;;;;12.43;7.43;;;;;;;;;;5079386;28;32381;-74
2021/04/13 01:11:28;;;;;;;14.55;7.70;;;;;;;;;;5082017;28;32048;-74
2021/04/13 01:13:56;;;;;;;8.35;6.50;;;;;;;;;;5081939;28;32094;-75
2021/04/13 01:16:24;;;;;;;12.95;7.90;;;;;;;;;;5082374;28;32415;-73
2021/04/13 01:18:52;;;;;;;11.52;7.00;;;;;;;;;;5081659;28;32271;-76
2021/04/13 01:21:33;;;;;;;10.75;6.93;;;;;;;;;;5081395;28;32983;-72
2021/04/13 01:24:14;;;;;;;11.20;7.10;;;;;;;;;;5080578;28;29863;-76
2021/04/13 01:26:44;;;;;;;10.05;6.82;;;;;;;;;;5079627;28;30923;-81
2021/04/13 01:29:11;;;;;;;10.40;6.85;;;;;;;;;;5081477;28;32131;-78
2021/04/13 01:31:49;;;;;;;9.50;6.90;;;;;;;;;;5081563;28;32128;-72
2021/04/13 01:34:15;;;;;;;10.25;6.85;;;;;;;;;;5081367;28;32975;-71
2021/04/13 01:36:46;;;;;;;11.95;7.03;;;;;;;;;;5080781;28;33681;-69
2021/04/13 01:39:23;;;;;;;14.45;7.72;;;;;;;;;;5081304;28;32385;-73
2021/04/13 01:44:21;;;;;;;15.30;7.55;;;;;;;;;;5080253;28;30411;-75
2021/04/13 01:46:47;;;;;;;12.73;7.80;;;;;;;;;;5079764;28;30995;-76
2021/04/13 01:49:13;;;;;;;14.27;7.68;;;;;;;;;;5081206;28;32845;-75
2021/04/13 01:51:39;;;;;;;11.70;7.28;;;;;;;;;;5081343;28;31786;-74
2021/04/13 01:54:11;;;;;;;12.40;7.72;;;;;;;;;;5079845;28;31869;-75
2021/04/13 01:56:44;;;;;;;12.38;7.25;;;;;;;;;;5080963;28;32533;-74
2021/04/13 01:59:30;;;;;;;9.77;7.07;;;;;;;;;;5079835;28;30636;-74
2021/04/13 02:01:59;;;;;;;14.30;8.05;;;;;;;;;;5080804;28;31529;-75
2021/04/13 02:04:27;;;;;;;14.05;8.20;;;;;;;;;;5080802;28;33018;-72
2021/04/13 02:06:57;;;;;;;14.60;7.10;;;;;;;;;;5080806;28;32886;-74
2021/04/13 02:09:34;;;;;;;13.15;7.47;;;;;;;;;;5080738;28;32205;-75
2021/04/13 02:12:02;;;;;;;11.85;7.80;;;;;;;;;;5078233;28;31944;-76
2021/04/13 02:14:29;;;;;;;13.13;7.70;;;;;;;;;;5080851;28;31994;-76
2021/04/13 02:16:59;;;;;;;11.77;7.00;;;;;;;;;;5080848;28;32519;-75
2021/04/13 02:19:25;;;;;;;13.88;7.68;;;;;;;;;;5078106;28;32292;-75
2021/04/13 02:21:55;;;;;;;13.55;7.57;;;;;;;;;;5080890;28;32849;-76
2021/04/13 02:24:22;;;;;;;10.25;7.00;;;;;;;;;;5080476;28;31908;-76
2021/04/13 02:26:52;;;;;;;11.52;7.47;;;;;;;;;;5079935;28;33273;-76
2021/04/13 02:29:19;;;;;;;14.23;7.78;;;;;;;;;;5080698;28;33148;-75
2021/04/13 02:31:52;;;;;;;16.02;7.55;;;;;;;;;;5080352;28;33096;-76
2021/04/13 02:34:23;;;;;;;10.50;6.70;;;;;;;;;;5077877;28;32107;-78
2021/04/13 02:36:50;;;;;;;11.52;7.22;;;;;;;;;;5080486;28;32488;-76
2021/04/13 02:39:18;;;;;;;12.95;7.28;;;;;;;;;;5080493;28;33102;-73
2021/04/13 02:41:48;;;;;;;12.30;7.95;;;;;;;;;;5079095;28;31045;-75
2021/04/13 02:44:15;;;;;;;10.73;7.18;;;;;;;;;;5080280;28;33069;-74
2021/04/13 02:46:41;;;;;;;11.55;7.05;;;;;;;;;;5080441;28;32627;-74
2021/04/13 02:49:08;;;;;;;12.13;7.00;;;;;;;;;;5078640;28;30730;-76
2021/04/13 02:51:36;;;;;;;13.73;7.63;;;;;;;;;;5080451;28;31814;-76
2021/04/13 02:54:03;;;;;;;17.65;8.00;;;;;;;;;;5079454;28;31780;-76
2021/04/13 02:56:33;;;;;;;11.23;7.70;;;;;;;;;;5080467;28;33254;-77
2021/04/13 02:58:59;;;;;;;14.40;7.40;;;;;;;;;;5080319;28;33225;-77
2021/04/13 03:01:24;;;;;;;15.00;7.40;;;;;;;;;;5080334;28;32882;-75
2021/04/13 03:03:51;;;;;;;10.43;6.53;;;;;;;;;;5080214;28;31983;-75
2021/04/13 03:06:18;;;;;;;11.27;6.85;;;;;;;;;;5081322;28;32632;-75
2021/04/13 03:08:43;;;;;;;16.25;8.10;;;;;;;;;;5083737;28;32184;-76
2021/04/13 03:11:12;;;;;;;12.50;7.45;;;;;;;;;;5083383;28;31998;-75
2021/04/13 03:13:38;;;;;;;9.75;6.85;;;;;;;;;;5083027;28;32080;-76
2021/04/13 03:16:05;;;;;;;14.18;6.85;;;;;;;;;;5082980;28;33574;-76
2021/04/13 03:18:41;;;;;;;13.90;7.47;;;;;;;;;;5083233;28;33169;-77
2021/04/13 03:21:13;;;;;;;10.73;6.70;;;;;;;;;;5081916;28;30296;-76
2021/04/13 03:23:39;;;;;;;11.27;7.38;;;;;;;;;;5083218;28;31900;-76
2021/04/13 03:26:12;;;;;;;13.05;6.78;;;;;;;;;;5082900;28;33558;-74
2021/04/13 03:28:42;;;;;;;13.27;6.53;;;;;;;;;;5080522;28;32317;-75
2021/04/13 03:31:08;;;;;;;10.73;7.22;;;;;;;;;;5083349;28;31940;-74
2021/04/13 03:33:35;;;;;;;14.88;7.70;;;;;;;;;;5083068;28;32081;-75
2021/04/13 03:36:06;;;;;;;12.52;6.45;;;;;;;;;;5083306;28;32567;-76
2021/04/13 03:38:32;;;;;;;11.52;6.70;;;;;;;;;;5082659;28;32153;-74
2021/04/13 03:40:58;;;;;;;10.60;6.80;;;;;;;;;;5083060;28;31955;-78
2021/04/13 03:43:25;;;;;;;9.43;6.65;;;;;;;;;;5083038;28;32856;-77
2021/04/13 03:45:56;;;;;;;11.30;6.70;;;;;;;;;;5082923;28;33576;-74
2021/04/13 03:48:24;;;;;;;12.30;6.82;;;;;;;;;;5082940;28;32377;-74
2021/04/13 03:51:08;;;;;;;12.35;6.57;;;;;;;;;;5082520;28;31956;-75
2021/04/13 03:53:36;;;;;;;11.98;7.18;;;;;;;;;;5082969;28;31959;-77
2021/04/13 03:56:13;;;;;;;10.77;6.68;;;;;;;;;;5082508;28;32637;-74
2021/04/13 03:58:59;;;;;;;9.55;6.75;;;;;;;;;;5082677;28;31982;-68
2021/04/13 04:01:29;;;;;;;11.60;6.78;;;;;;;;;;5082256;28;31708;-68
2021/04/13 04:03:59;;;;;;;13.20;6.43;;;;;;;;;;5082858;28;32608;-68
2021/04/13 04:06:38;;;;;;;11.60;7.35;;;;;;;;;;5082522;28;33566;-70
2021/04/13 04:09:11;;;;;;;11.15;7.00;;;;;;;;;;5082605;28;32202;-72
2021/04/13 04:11:36;;;;;;;12.98;6.97;;;;;;;;;;5082700;28;32727;-71
2021/04/13 04:14:02;;;;;;;15.32;7.05;;;;;;;;;;5082707;28;32173;-74
2021/04/13 04:16:28;;;;;;;20.15;7.25;;;;;;;;;;5082140;28;33122;-68
2021/04/13 04:18:54;;;;;;;10.35;7.07;;;;;;;;;;5081029;28;33201;-73
2021/04/13 04:21:37;;;;;;;16.33;7.65;;;;;;;;;;5082048;28;31929;-71
2021/04/13 04:24:38;;;;;;;11.48;6.18;;;;;;;;;;5082533;28;32245;-69
2021/04/13 04:27:24;;;;;;;10.63;6.50;;;;;;;;;;5078842;28;33361;-71
2021/04/13 04:30:03;;;;;;;14.07;7.38;;;;;;;;;;5069580;28;32234;-68
2021/04/13 04:32:29;;;;;;;11.23;6.85;;;;;;;;;;5082266;28;31856;-70
2021/04/13 04:34:55;;;;;;;15.75;8.25;;;;;;;;;;5082017;28;32029;-71
2021/04/13 04:37:26;;;;;;;19.13;8.57;;;;;;;;;;5082266;28;32499;-70
2021/04/13 04:40:10;;;;;;;15.27;8.68;;;;;;;;;;5081883;28;32212;-67
2021/04/13 04:42:37;;;;;;;13.70;8.60;;;;;;;;;;5082451;28;32123;-75
2021/04/13 04:45:08;;;;;;;17.92;8.60;;;;;;;;;;5081367;28;31929;-78
2021/04/13 04:47:36;;;;;;;19.27;7.63;;;;;;;;;;5082738;28;32584;-76
2021/04/13 04:50:02;;;;;;;14.23;8.00;;;;;;;;;;5082008;28;32034;-75
2021/04/13 04:52:28;;;;;;;17.70;7.20;;;;;;;;;;5081840;28;33013;-74
2021/04/13 04:54:54;;;;;;;20.05;9.77;;;;;;;;;;5081931;28;32063;-76
2021/04/13 04:57:19;;;;;;;20.10;9.85;;;;;;;;;;5084605;28;32619;-74
2021/04/13 04:59:45;;;;;;;20.45;9.27;;;;;;;;;;5089831;28;32962;-76
2021/04/13 05:02:11;;;;;;;13.05;7.95;;;;;;;;;;5088027;28;32207;-73
2021/04/13 05:04:36;;;;;;;13.23;7.75;;;;;;;;;;5083725;28;32757;-76
2021/04/13 05:07:02;;;;;;;18.40;8.18;;;;;;;;;;5082357;28;32693;-75
2021/04/13 05:09:28;;;;;;;14.85;7.20;;;;;;;;;;5081117;28;32226;-75
2021/04/13 05:11:53;;;;;;;15.68;7.68;;;;;;;;;;5082446;28;32597;-76
2021/04/13 05:14:19;;;;;;;20.15;9.60;;;;;;;;;;5082088;28;32004;-75
2021/04/13 05:16:45;;;;;;;16.73;9.38;;;;;;;;;;5082079;28;32628;-73
2021/04/13 05:19:10;;;;;;;17.55;8.90;;;;;;;;;;5081861;28;32256;-69
2021/04/13 05:21:36;;;;;;;17.58;10.18;;;;;;;;;;5080288;28;32812;-72
2021/04/13 05:24:02;;;;;;;15.30;8.50;;;;;;;;;;5081315;28;32157;-75
2021/04/13 05:26:27;;;;;;;15.98;8.02;;;;;;;;;;5081186;28;32584;-75
2021/04/13 05:28:53;;;;;;;13.70;8.07;;;;;;;;;;5078393;28;31368;-74
2021/04/13 05:31:19;;;;;;;12.40;7.75;;;;;;;;;;5081596;28;31808;-74
2021/04/13 05:33:44;;;;;;;12.40;7.47;;;;;;;;;;5081556;28;32004;-75
2021/04/13 05:36:10;;;;;;;15.45;7.57;;;;;;;;;;5081149;28;32456;-75
2021/04/13 05:38:41;;;;;;;16.15;8.23;;;;;;;;;;5081335;28;33197;-73
2021/04/13 05:41:07;;;;;;;17.42;7.85;;;;;;;;;;5080956;28;31966;-71
2021/04/13 05:43:35;;;;;;;12.18;7.40;;;;;;;;;;5081306;28;32028;-74
2021/04/13 05:46:01;;;;;;;17.00;8.52;;;;;;;;;;5080942;28;33149;-73
2021/04/13 05:48:28;;;;;;;19.05;9.60;;;;;;;;;;5081198;28;32212;-74
2021/04/13 05:50:54;;;;;;;19.20;9.27;;;;;;;;;;5080802;28;32022;-69
2021/04/13 05:53:19;;;;;;;15.50;8.32;;;;;;;;;;5080845;28;32141;-75
2021/04/13 05:55:46;;;;;;;16.05;8.20;;;;;;;;;;5081221;28;32443;-69
2021/04/13 05:58:13;;;;;;;20.67;8.68;;;;;;;;;;5081076;28;32154;-75
2021/04/13 06:00:39;;;;;;;15.82;7.78;;;;;;;;;;5081006;28;32935;-76
2021/04/13 06:03:04;;;;;;;24.10;8.23;;;;;;;;;;5081107;28;32692;-76
2021/04/13 06:05:30;;;;;;;14.52;8.38;;;;;;;;;;5080963;28;32703;-68
2021/04/13 06:07:56;;;;;;;17.58;8.45;;;;;;;;;;5080773;28;32258;-69
2021/04/13 06:10:22;;;;;;;13.48;7.88;;;;;;;;;;5080934;28;31867;-74
2021/04/13 06:12:52;;;;;;;20.30;8.93;;;;;;;;;;5080975;28;32010;-74
2021/04/13 06:15:19;;;;;;;17.17;9.07;;;;;;;;;;5080788;28;33167;-76
2021/04/13 06:17:45;;;;;;;17.08;9.40;;;;;;;;;;5080946;28;32053;-75
2021/04/13 06:20:11;;;;;;;19.90;9.65;;;;;;;;;;5080977;28;32776;-75
2021/04/13 06:22:37;;;;;;;26.15;9.93;;;;;;;;;;5079422;28;31955;-75
2021/04/13 06:25:03;;;;;;;20.02;10.43;;;;;;;;;;5080955;28;32578;-77
2021/04/13 06:27:29;;;;;;;19.42;9.45;;;;;;;;;;5078844;28;31719;-74
2021/04/13 06:29:54;;;;;;;17.95;9.07;;;;;;;;;;5080842;28;32009;-75
2021/04/13 06:32:21;;;;;;;19.10;9.32;;;;;;;;;;5080560;28;31981;-75
2021/04/13 06:34:47;;;;;;;14.82;8.77;;;;;;;;;;5080459;28;32651;-75
2021/04/13 06:37:12;;;;;;;20.92;10.00;;;;;;;;;;5080954;28;31929;-75
2021/04/13 06:39:38;;;;;;;12.60;8.77;;;;;;;;;;5080793;28;32065;-76
2021/04/13 06:42:06;;;;;;;18.77;8.93;;;;;;;;;;5084153;28;32102;-75
2021/04/13 06:44:41;;;;;;;16.15;9.55;;;;;;;;;;5082698;28;31203;-74
2021/04/13 06:47:25;;;;;;;19.60;9.25;;;;;;;;;;5083646;28;33234;-73
2021/04/13 06:49:54;;;;;;;19.98;9.63;;;;;;;;;;5083900;28;31997;-73
2021/04/13 06:52:29;;;;;;;20.42;10.10;;;;;;;;;;5083776;28;31936;-70
2021/04/13 06:55:05;;;;;;;17.75;9.02;;;;;;;;;;5080886;28;32621;-72
2021/04/13 06:57:38;;;;;;;18.00;10.10;;;;;;;;;;5080993;28;32304;-71
2021/04/13 07:00:10;;;;;;;17.30;10.27;;;;;;;;;;5080900;28;31959;-73
2021/04/13 07:02:42;;;;;;;27.63;10.32;;;;;;;;;;5083589;28;32099;-77
2021/04/13 07:08:43;;;;;;;26.45;11.18;;;;;;;;;;5083664;28;33566;-73
2021/04/13 07:11:26;;;;;;;21.13;10.10;;;;;;;;;;5083593;28;32547;-73
2021/04/13 07:13:59;;;;;;;23.67;9.15;;;;;;;;;;5083362;28;33220;-73
2021/04/13 07:16:26;;;;;;;19.95;8.77;;;;;;;;;;5083075;28;33207;-73
2021/04/13 07:19:18;;;;;;;15.38;7.97;;;;;;;;;;5083365;28;32278;-72
2021/04/13 07:22:02;;;;;;;16.50;6.53;;;;;;;;;;5081503;28;31880;-70
2021/04/13 07:24:28;;;;;;;;;;;;;;;;;;5084611;28;32050;-66
2021/04/13 07:27:03;;;;;;;12.65;6.80;;;;;;;;;;5084335;28;33466;-66
2021/04/13 07:29:36;;;;;;;16.65;7.75;;;;;;;;;;5085527;28;33227;-67
2021/04/13 07:32:07;;;;;;;22.57;7.67;;;;;;;;;;5083843;28;31644;-66
2021/04/13 07:34:37;;;;;;;16.50;7.57;;;;;;;;;;5083020;28;31981;-68
2021/04/13 07:37:07;;;;;;;16.38;7.82;;;;;;;;;;5083181;28;31898;-71
2021/04/13 07:39:34;;;;;;;21.40;9.20;;;;;;;;;;5082899;28;32748;-68
2021/04/13 07:42:03;;;;;;;18.50;9.15;;;;;;;;;;5083129;28;31967;-71
2021/04/13 07:44:58;;;;;;;15.38;6.70;;;;;;;;;;5082996;28;31676;-70
2021/04/13 07:47:59;;;;;;;10.68;5.82;;;;;;;;;;5081001;28;33506;-70
2021/04/13 07:50:44;;;;;;;13.68;6.53;;;;;;;;;;5080209;28;32166;-70
2021/04/13 07:53:29;;;;;;;13.02;5.88;;;;;;;;;;5078937;28;32838;-72
2021/04/13 07:55:58;;;;;;;8.30;3.30;;;;;;;;;;5083102;28;33013;-71
2021/04/13 07:58:48;;;;;;;8.85;2.83;;;;;;;;;;5081731;28;30968;-71
2021/04/13 08:01:14;;;;;;;7.80;1.77;;;;;;;;;;5080889;28;32310;-70
2021/04/13 08:03:40;;;;;;;9.32;2.72;;;;;;;;;;5082963;28;32041;-71
2021/04/13 08:06:24;;;;;;;8.57;2.10;;;;;;;;;;5082631;28;33044;-70
2021/04/13 08:09:04;;;;;;;8.00;2.10;;;;;;;;;;5082408;28;32584;-74
2021/04/13 08:11:30;;;;;;;5.97;2.15;;;;;;;;;;5080006;28;32201;-74
2021/04/13 08:13:56;;;;;;;4.05;1.55;;;;;;;;;;5082921;28;31889;-74
2021/04/13 08:16:36;;;;;;;5.47;1.95;;;;;;;;;;5081490;28;31820;-74
2021/04/13 08:19:22;;;;;;;2.35;0.63;;;;;;;;;;5079806;28;32690;-74
2021/04/13 08:22:06;;;;;;;2.97;0.70;;;;;;;;;;5082474;28;32331;-72
2021/04/13 08:24:38;;;;;;;8.02;2.28;;;;;;;;;;5082241;28;32467;-73
2021/04/13 08:27:13;;;;;;;4.78;1.75;;;;;;;;;;5082025;28;33006;-73
2021/04/13 08:29:57;;;;;;;7.72;1.80;;;;;;;;;;5082129;28;32680;-73
2021/04/13 08:35:30;;;;;;;8.98;1.83;;;;;;;;;;5079805;28;32860;-73
2021/04/13 08:38:08;;;;;;;6.93;1.42;;;;;;;;;;5082395;28;32888;-74
2021/04/13 08:40:36;;;;;;;5.65;1.23;;;;;;;;;;5082025;28;33583;-74
2021/04/13 08:43:23;;;;;;;8.00;1.33;;;;;;;;;;5082268;28;32252;-74
2021/04/13 08:46:08;;;;;;;6.80;1.90;;;;;;;;;;5082181;28;31876;-74
2021/04/13 08:48:38;;;;;;;9.48;2.17;;;;;;;;;;5082115;28;32189;-74
2021/04/13 08:51:08;;;;;;;5.07;2.10;;;;;;;;;;5081814;28;32570;-74
2021/04/13 08:53:37;;;;;;;3.75;1.55;;;;;;;;;;5082023;28;32025;-74
2021/04/13 08:56:19;;;;;;;3.08;1.40;;;;;;;;;;5081822;28;32998;-73
2021/04/13 08:58:47;;;;;;;7.80;2.17;;;;;;;;;;5079094;28;31973;-73
2021/04/13 09:01:34;;;;;;;10.07;3.22;;;;;;;;;;5081697;28;33542;-72
2021/04/13 09:04:00;;;;;;;7.65;1.95;;;;;;;;;;5081471;28;32236;-72
2021/04/13 09:06:58;;;;;;;8.55;2.30;;;;;;;;;;5081885;28;31733;-73
2021/04/13 09:09:42;;;;;;;11.02;3.03;;;;;;;;;;5079380;28;31894;-73
2021/04/13 09:12:11;;;;;;;8.27;2.72;;;;;;;;;;5081798;28;32597;-72
2021/04/13 09:14:40;;;;;;;8.73;2.70;;;;;;;;;;5082847;28;32362;-73
2021/04/13 09:17:19;;;;;;;8.02;2.63;;;;;;;;;;5083376;28;31750;-73
2021/04/13 09:19:55;;;;;;;8.20;3.45;;;;;;;;;;5081696;28;31873;-73
2021/04/13 09:22:21;;;;;;;7.72;2.65;;;;;;;;;;5081544;28;32543;-73
2021/04/13 09:24:47;;;;;;;9.23;3.05;;;;;;;;;;5081725;28;32170;-72
2021/04/13 09:27:20;;;;;;;10.75;2.60;;;;;;;;;;5081274;28;32526;-72
2021/04/13 09:29:55;;;;;;;8.02;3.15;;;;;;;;;;5081130;28;32119;-72
2021/04/13 09:32:24;;;;;;;8.60;2.90;;;;;;;;;;5081144;28;33477;-72
2021/04/13 09:34:59;;;;;;;7.00;2.60;;;;;;;;;;5081508;28;32882;-73
2021/04/13 09:37:49;;;;;;;6.80;2.80;;;;;;;;;;5080823;28;31921;-72
2021/04/13 09:40:21;;;;;;;9.98;3.28;;;;;;;;;;5078561;28;31891;-72
2021/04/13 09:43:05;;;;;;;10.95;3.60;;;;;;;;;;5081309;28;32510;-72
2021/04/13 09:45:30;;;;;;;;;;;;;;;;;;5082565;28;32184;-72
2021/04/13 09:48:06;;;;;;;7.97;2.88;;;;;;;;;;5081353;28;32664;-71
2021/04/13 09:50:44;;;;;;;5.35;2.45;;;;;;;;;;5078656;28;31981;-72
2021/04/13 09:53:28;;;;;;;11.57;2.55;;;;;;;;;;5080466;28;33615;-72
2021/04/13 09:55:59;;;;;;;10.15;2.80;;;;;;;;;;5079620;28;30693;-72
2021/04/13 09:58:33;;;;;;;7.50;2.30;;;;;;;;;;5081100;28;31773;-72
2021/04/13 10:01:08;;;;;;;11.40;2.92;;;;;;;;;;5078402;28;32172;-71
2021/04/13 10:03:46;;;;;;;7.95;2.72;;;;;;;;;;5079642;28;32325;-72
2021/04/13 10:06:13;;;;;;;9.25;2.28;;;;;;;;;;5081068;28;32312;-72
2021/04/13 10:08:42;;;;;;;8.93;2.85;;;;;;;;;;5080663;28;32893;-72
2021/04/13 10:11:08;;;;;;;9.93;2.50;;;;;;;;;;5080730;28;32096;-71
2021/04/13 10:13:37;;;;;;;5.05;2.63;;;;;;;;;;5080770;28;32416;-72
2021/04/13 10:16:07;;;;;;;6.97;2.40;;;;;;;;;;5083261;28;33238;-73
2021/04/13 10:18:44;;;;;;;6.28;2.60;;;;;;;;;;5084410;28;32039;-72
2021/04/13 10:21:16;;;;;;;8.05;2.13;;;;;;;;;;5084363;28;33180;-72
2021/04/13 10:23:41;;;;;;;7.63;3.10;;;;;;;;;;5083809;28;32582;-72
2021/04/13 10:26:29;;;;;;;8.07;2.47;;;;;;;;;;5083646;28;33171;-73
2021/04/13 10:29:18;;;;;;;7.68;2.47;;;;;;;;;;5084118;28;31795;-72
2021/04/13 10:32:07;;;;;;;5.38;1.90;;;;;;;;;;5084325;28;32473;-72
2021/04/13 10:34:50;;;;;;;1.90;1.42;;;;;;;;;;5084033;28;32598;-72
2021/04/13 10:37:30;;;;;;;7.70;1.55;;;;;;;;;;5084406;28;32177;-71
2021/04/13 10:39:59;;;;;;;4.80;1.60;;;;;;;;;;5081339;28;31732;-72
2021/04/13 10:43:00;;;;;;;7.85;1.55;;;;;;;;;;5083980;28;32111;-72
2021/04/13 10:45:32;;;;;;;13.27;3.17;;;;;;;;;;5081287;28;33569;-72
2021/04/13 10:48:16;;;;;;;7.15;2.50;;;;;;;;;;5082085;28;32299;-73
2021/04/13 10:50:50;;;;;;;7.28;2.22;;;;;;;;;;5083987;28;31915;-72
2021/04/13 10:53:17;;;;;;;;;;;;;;;;;;5084044;28;32170;-73
2021/04/13 10:55:57;;;;;;;5.75;2.00;;;;;;;;;;5083882;28;33784;-73
2021/04/13 10:58:43;;;;;;;4.30;2.20;;;;;;;;;;5083624;28;33095;-73
2021/04/13 11:01:19;;;;;;;5.43;2.17;;;;;;;;;;5081287;28;31812;-71
2021/04/13 11:04:03;;;;;;;6.30;2.20;;;;;;;;;;5080971;28;32034;-72
2021/04/13 11:06:35;;;;;;;12.93;2.50;;;;;;;;;;5083660;28;32516;-72
2021/04/13 11:09:19;;;;;;;4.90;2.20;;;;;;;;;;5083191;28;32941;-72
2021/04/13 11:11:50;;;;;;;7.30;2.60;;;;;;;;;;5083493;28;32991;-72
2021/04/13 11:14:35;;;;;;;7.20;2.33;;;;;;;;;;5083626;28;31950;-72
2021/04/13 11:17:06;;;;;;;3.92;2.38;;;;;;;;;;5083482;28;32777;-73
2021/04/13 11:19:38;;;;;;;6.85;2.00;;;;;;;;;;5083523;28;32176;-72
2021/04/13 11:22:22;;;;;;;3.90;1.85;;;;;;;;;;5083509;28;32950;-72
2021/04/13 11:25:02;;;;;;;4.18;1.83;;;;;;;;;;5083596;28;32055;-72
2021/04/13 11:27:47;;;;;;;7.13;1.83;;;;;;;;;;5081623;28;32592;-72
2021/04/13 11:30:15;;;;;;;3.85;1.60;;;;;;;;;;5083147;28;33239;-73
2021/04/13 11:33:07;;;;;;;3.58;1.30;;;;;;;;;;5083395;28;32051;-74
2021/04/13 11:35:42;;;;;;;6.90;1.70;;;;;;;;;;5083137;28;33093;-74
2021/04/13 11:38:20;;;;;;;2.70;1.35;;;;;;;;;;5082753;28;33573;-71
2021/04/13 11:40:51;;;;;;;4.43;1.40;;;;;;;;;;5082662;28;33072;-72
2021/04/13 11:43:18;;;;;;;3.22;1.50;;;;;;;;;;5082991;28;32953;-72
2021/04/13 11:46:00;;;;;;;3.50;1.42;;;;;;;;;;5083121;28;32077;-71
2021/04/13 11:48:29;;;;;;;4.68;1.50;;;;;;;;;;5082618;28;32426;-72
2021/04/13 11:50:57;;;;;;;2.63;1.20;;;;;;;;;;5082870;28;32293;-72
2021/04/13 11:53:29;;;;;;;7.07;1.75;;;;;;;;;;5081409;28;31504;-72
2021/04/13 11:55:54;;;;;;;5.15;1.60;;;;;;;;;;5082529;28;32032;-71
2021/04/13 11:58:23;;;;;;;3.10;1.48;;;;;;;;;;5083014;28;32602;-73
2021/04/13 12:00:52;;;;;;;1.92;1.13;;;;;;;;;;5082603;28;33205;-72
2021/04/13 12:03:18;;;;;;;2.67;1.02;;;;;;;;;;5082759;28;32064;-73
2021/04/13 12:05:46;;;;;;;2.40;1.02;;;;;;;;;;5082765;28;32542;-73
2021/04/13 12:08:30;;;;;;;2.35;1.00;;;;;;;;;;5082927;28;34097;-73
2021/04/13 12:10:57;;;;;;;2.20;0.73;;;;;;;;;;5081378;28;30814;-73
2021/04/13 12:13:58;;;;;;;2.13;1.35;;;;;;;;;;5082589;28;32159;-72
2021/04/13 12:16:42;;;;;;;4.53;1.08;;;;;;;;;;5079628;28;32948;-74
2021/04/13 12:19:12;;;;;;;3.47;1.10;;;;;;;;;;5082324;28;33576;-72
2021/04/13 12:21:51;;;;;;;5.70;1.30;;;;;;;;;;5082106;28;31551;-73
2021/04/13 12:24:35;;;;;;;3.70;1.27;;;;;;;;;;5082946;28;31796;-73
2021/04/13 12:27:19;;;;;;;2.95;1.60;;;;;;;;;;5082400;28;32025;-73
2021/04/13 12:29:45;;;;;;;2.90;1.30;;;;;;;;;;5082291;28;32552;-74
2021/04/13 12:32:11;;;;;;;3.00;1.45;;;;;;;;;;5081993;28;32184;-73
2021/04/13 12:34:52;;;;;;;4.43;1.08;;;;;;;;;;5082294;28;32874;-73
2021/04/13 12:37:47;;;;;;;4.57;1.73;;;;;;;;;;5081982;28;32945;-74
2021/04/13 12:40:16;;;;;;;3.78;1.50;;;;;;;;;;5080678;28;32567;-73
2021/04/13 12:42:43;;;;;;;1.65;1.10;;;;;;;;;;5081666;28;32245;-71
2021/04/13 12:45:18;;;;;;;2.33;1.00;;;;;;;;;;5082185;28;31922;-71
2021/04/13 12:47:45;;;;;;;3.30;1.10;;;;;;;;;;5080754;28;31376;-70
2021/04/13 12:50:13;;;;;;;2.78;0.93;;;;;;;;;;5082025;28;32569;-71
2021/04/13 12:52:39;;;;;;;3.03;1.10;;;;;;;;;;5081682;28;32281;-71
2021/04/13 12:55:12;;;;;;;3.58;1.35;;;;;;;;;;5080608;28;30569;-71
2021/04/13 12:57:38;;;;;;;;;;;;;;;;;;5083355;28;32963;-70
2021/04/13 13:00:06;;;;;;;3.30;0.60;;;;;;;;;;5082138;28;32886;-70
2021/04/13 13:02:34;;;;;;;1.95;0.50;;;;;;;;;;5081694;28;32849;-71
2021/04/13 13:05:00;;;;;;;3.60;0.85;;;;;;;;;;5081918;28;31821;-71
2021/04/13 13:07:27;;;;;;;2.22;0.90;;;;;;;;;;5081425;28;32048;-71
2021/04/13 13:09:53;;;;;;;1.90;0.80;;;;;;;;;;5081423;28;33230;-68
2021/04/13 13:12:25;;;;;;;2.28;0.68;;;;;;;;;;5081642;28;32117;-72
2021/04/13 13:14:58;;;;;;;3.53;1.13;;;;;;;;;;5081567;28;32947;-71
2021/04/13 13:17:31;;;;;;;5.45;1.45;;;;;;;;;;5081957;28;33088;-69
2021/04/13 13:19:57;;;;;;;3.25;0.90;;;;;;;;;;5081713;28;32422;-71
2021/04/13 13:22:25;;;;;;;0.98;0.80;;;;;;;;;;5081542;28;32293;-71
2021/04/13 13:24:52;;;;;;;1.40;0.85;;;;;;;;;;5081614;28;31946;-74
2021/04/13 13:27:20;;;;;;;3.38;1.08;;;;;;;;;;5081022;28;32976;-74
2021/04/13 13:29:45;;;;;;;2.17;1.10;;;;;;;;;;5080996;28;32593;-73
2021/04/13 13:32:13;;;;;;;1.48;1.05;;;;;;;;;;5084418;28;32223;-74
2021/04/13 13:34:39;;;;;;;2.35;1.10;;;;;;;;;;5084744;28;31861;-73
2021/04/13 13:37:06;;;;;;;3.22;1.20;;;;;;;;;;5082328;28;31992;-73
2021/04/13 13:39:32;;;;;;;3.40;0.93;;;;;;;;;;5081162;28;32578;-73
2021/04/13 13:42:04;;;;;;;2.03;1.00;;;;;;;;;;5081282;28;32433;-72
2021/04/13 13:44:31;;;;;;;2.15;0.98;;;;;;;;;;5081233;28;32929;-74
2021/04/13 13:46:59;;;;;;;3.53;1.25;;;;;;;;;;5081236;28;32027;-74
2021/04/13 13:49:35;;;;;;;3.65;0.90;;;;;;;;;;5080349;28;32581;-73
2021/04/13 13:52:09;;;;;;;1.85;1.00;;;;;;;;;;5080542;28;32714;-73
2021/04/13 13:54:35;;;;;;;;;;;;;;;;;;5079461;28;32020;-73
2021/04/13 13:57:09;;;;;;;4.05;0.88;;;;;;;;;;5081436;28;33273;-74
2021/04/13 13:59:39;;;;;;;1.33;1.00;;;;;;;;;;5079770;28;32469;-74
2021/04/13 14:02:25;;;;;;;1.55;0.98;;;;;;;;;;5081096;28;32257;-73
2021/04/13 14:05:06;;;;;;;1.80;1.00;;;;;;;;;;5080913;28;32892;-74
2021/04/13 14:07:34;;;;;;;1.73;0.70;;;;;;;;;;5080908;28;32142;-72
2021/04/13 14:10:21;;;;;;;3.97;1.10;;;;;;;;;;5080849;28;33624;-74
2021/04/13 14:12:47;;;;;;;8.10;1.00;;;;;;;;;;5081063;28;33132;-72
2021/04/13 14:15:21;;;;;;;0.57;0.40;;;;;;;;;;5081047;28;31812;-72
2021/04/13 14:17:59;;;;;;;2.33;0.70;;;;;;;;;;5080434;28;32202;-72
2021/04/13 14:20:24;;;;;;;1.38;0.45;;;;;;;;;;5080612;28;32644;-72
2021/04/13 14:22:52;;;;;;;1.42;0.80;;;;;;;;;;5080911;28;32180;-72
2021/04/13 14:25:23;;;;;;;3.53;0.80;;;;;;;;;;5080689;28;31795;-72
2021/04/13 14:28:06;;;;;;;2.20;0.80;;;;;;;;;;5079426;28;30557;-72
2021/04/13 14:30:32;;;;;;;4.85;1.27;;;;;;;;;;5080302;28;33515;-72
2021/04/13 14:32:57;;;;;;;1.85;1.00;;;;;;;;;;5080710;28;32316;-73
2021/04/13 14:35:23;;;;;;;2.22;0.80;;;;;;;;;;5080527;28;31785;-72
2021/04/13 14:37:49;;;;;;;2.25;0.95;;;;;;;;;;5080709;28;32768;-72
2021/04/13 14:40:19;;;;;;;2.28;1.25;;;;;;;;;;5079220;28;31119;-72
2021/04/13 14:42:46;;;;;;;2.40;1.40;;;;;;;;;;5080403;28;32155;-72
2021/04/13 14:45:13;;;;;;;4.38;1.88;;;;;;;;;;5080581;28;31996;-72
2021/04/13 14:47:39;;;;;;;2.92;1.20;;;;;;;;;;5080411;28;33046;-73
2021/04/13 14:50:10;;;;;;;3.08;1.08;;;;;;;;;;5080026;28;33545;-72
2021/04/13 14:52:37;;;;;;;3.75;1.10;;;;;;;;;;5080328;28;33215;-73
2021/04/13 14:55:03;;;;;;;2.80;1.23;;;;;;;;;;5080404;28;31986;-72
2021/04/13 14:57:29;;;;;;;2.03;1.02;;;;;;;;;;5080355;28;32256;-72
2021/04/13 14:59:55;;;;;;;2.00;0.95;;;;;;;;;;5080399;28;32588;-72
2021/04/13 15:02:20;;;;;;;1.98;1.17;;;;;;;;;;5083081;28;32876;-72
2021/04/13 15:04:46;;;;;;;3.00;1.33;;;;;;;;;;5083845;28;31954;-72
2021/04/13 15:07:12;;;;;;;2.83;1.08;;;;;;;;;;5083794;28;31686;-72
2021/04/13 15:09:39;;;;;;;2.97;1.20;;;;;;;;;;5083570;28;32681;-72
2021/04/13 15:12:05;;;;;;;1.70;1.10;;;;;;;;;;5083528;28;32215;-72
2021/04/13 15:14:30;;;;;;;4.43;1.25;;;;;;;;;;5081924;28;30170;-73